sensor_id;sensor_type;location;lat;lon;timestamp;P1;durP1;ratioP1;P2;durP2;ratioP2
50976;SDS011;36992;48.200;12.418;2023-03-16T00:00:48;1.77;;;0.90;;
50976;SDS011;36992;48.200;12.418;2023-03-16T00:03:15;3.95;;;0.90;;
50976;SDS011;36992;48.200;12.418;2023-03-16T00:05:43;2.08;;;0.57;;
50976;SDS011;36992;48.200;12.418;2023-03-16T00:08:10;2.45;;;1.00;;
50976;SDS011;36992;48.200;12.418;2023-03-16T00:10:37;1.95;;;0.75;;
50976;SDS011;36992;48.200;12.418;2023-03-16T00:13:03;3.13;;;0.75;;
50976;SDS011;36992;48.200;12.418;2023-03-16T00:15:32;2.40;;;0.55;;
50976;SDS011;36992;48.200;12.418;2023-03-16T00:17:59;1.15;;;0.47;;
50976;SDS011;36992;48.200;12.418;2023-03-16T00:20:25;2.78;;;0.65;;
50976;SDS011;36992;48.200;12.418;2023-03-16T00:22:52;2.47;;;1.08;;
50976;SDS011;36992;48.200;12.418;2023-03-16T00:25:18;1.42;;;0.50;;
50976;SDS011;36992;48.200;12.418;2023-03-16T00:27:45;2.15;;;0.60;;
50976;SDS011;36992;48.200;12.418;2023-03-16T00:30:12;2.50;;;0.60;;
50976;SDS011;36992;48.200;12.418;2023-03-16T00:32:40;1.80;;;0.55;;
50976;SDS011;36992;48.200;12.418;2023-03-16T00:35:07;1.60;;;0.60;;
50976;SDS011;36992;48.200;12.418;2023-03-16T00:37:33;3.22;;;0.47;;
50976;SDS011;36992;48.200;12.418;2023-03-16T00:40:00;3.10;;;0.60;;
50976;SDS011;36992;48.200;12.418;2023-03-16T00:42:28;1.70;;;0.82;;
50976;SDS011;36992;48.200;12.418;2023-03-16T00:44:58;1.95;;;0.52;;
50976;SDS011;36992;48.200;12.418;2023-03-16T00:47:26;1.60;;;0.70;;
50976;SDS011;36992;48.200;12.418;2023-03-16T00:49:56;2.22;;;1.13;;
50976;SDS011;36992;48.200;12.418;2023-03-16T00:52:23;1.52;;;0.60;;
50976;SDS011;36992;48.200;12.418;2023-03-16T00:54:51;1.73;;;0.70;;
50976;SDS011;36992;48.200;12.418;2023-03-16T00:57:19;3.75;;;0.93;;
50976;SDS011;36992;48.200;12.418;2023-03-16T00:59:49;1.70;;;0.65;;
50976;SDS011;36992;48.200;12.418;2023-03-16T01:02:16;1.48;;;0.60;;
50976;SDS011;36992;48.200;12.418;2023-03-16T01:04:47;0.98;;;0.40;;
50976;SDS011;36992;48.200;12.418;2023-03-16T01:07:15;2.55;;;0.45;;
50976;SDS011;36992;48.200;12.418;2023-03-16T01:09:41;1.30;;;0.60;;
50976;SDS011;36992;48.200;12.418;2023-03-16T01:12:09;2.75;;;0.75;;
50976;SDS011;36992;48.200;12.418;2023-03-16T01:14:37;2.08;;;0.70;;
50976;SDS011;36992;48.200;12.418;2023-03-16T01:17:04;2.53;;;0.50;;
50976;SDS011;36992;48.200;12.418;2023-03-16T01:19:33;2.08;;;0.70;;
50976;SDS011;36992;48.200;12.418;2023-03-16T01:22:01;2.88;;;0.60;;
50976;SDS011;36992;48.200;12.418;2023-03-16T01:24:29;1.55;;;0.52;;
50976;SDS011;36992;48.200;12.418;2023-03-16T01:26:56;2.35;;;0.60;;
50976;SDS011;36992;48.200;12.418;2023-03-16T01:29:22;2.83;;;1.15;;
50976;SDS011;36992;48.200;12.418;2023-03-16T01:31:49;5.40;;;0.90;;
50976;SDS011;36992;48.200;12.418;2023-03-16T01:34:15;1.92;;;0.68;;
50976;SDS011;36992;48.200;12.418;2023-03-16T01:36:42;2.08;;;0.98;;
50976;SDS011;36992;48.200;12.418;2023-03-16T01:39:09;2.22;;;0.98;;
50976;SDS011;36992;48.200;12.418;2023-03-16T01:41:38;3.22;;;0.88;;
50976;SDS011;36992;48.200;12.418;2023-03-16T01:44:05;1.42;;;0.63;;
50976;SDS011;36992;48.200;12.418;2023-03-16T01:46:32;1.92;;;1.00;;
50976;SDS011;36992;48.200;12.418;2023-03-16T01:49:03;2.58;;;1.00;;
50976;SDS011;36992;48.200;12.418;2023-03-16T01:51:34;3.15;;;0.70;;
50976;SDS011;36992;48.200;12.418;2023-03-16T01:54:09;2.47;;;0.80;;
50976;SDS011;36992;48.200;12.418;2023-03-16T01:56:42;2.17;;;0.55;;
50976;SDS011;36992;48.200;12.418;2023-03-16T01:59:15;2.15;;;0.70;;
50976;SDS011;36992;48.200;12.418;2023-03-16T02:01:45;1.38;;;0.60;;
50976;SDS011;36992;48.200;12.418;2023-03-16T02:04:15;1.98;;;1.05;;
50976;SDS011;36992;48.200;12.418;2023-03-16T02:06:48;1.80;;;0.63;;
50976;SDS011;36992;48.200;12.418;2023-03-16T02:09:15;1.70;;;0.70;;
50976;SDS011;36992;48.200;12.418;2023-03-16T02:11:44;3.13;;;0.77;;
50976;SDS011;36992;48.200;12.418;2023-03-16T02:14:12;3.10;;;1.10;;
50976;SDS011;36992;48.200;12.418;2023-03-16T02:16:39;1.58;;;0.60;;
50976;SDS011;36992;48.200;12.418;2023-03-16T02:19:08;1.58;;;0.70;;
50976;SDS011;36992;48.200;12.418;2023-03-16T02:21:39;1.92;;;0.73;;
50976;SDS011;36992;48.200;12.418;2023-03-16T02:26:41;2.05;;;0.45;;
50976;SDS011;36992;48.200;12.418;2023-03-16T02:29:16;1.75;;;0.65;;
50976;SDS011;36992;48.200;12.418;2023-03-16T02:31:51;4.13;;;1.20;;
50976;SDS011;36992;48.200;12.418;2023-03-16T02:34:18;2.55;;;0.90;;
50976;SDS011;36992;48.200;12.418;2023-03-16T02:36:45;1.88;;;0.82;;
50976;SDS011;36992;48.200;12.418;2023-03-16T02:39:14;4.90;;;2.17;;
50976;SDS011;36992;48.200;12.418;2023-03-16T02:41:40;2.55;;;0.98;;
50976;SDS011;36992;48.200;12.418;2023-03-16T02:44:08;4.63;;;1.17;;
50976;SDS011;36992;48.200;12.418;2023-03-16T02:46:40;6.15;;;1.90;;
50976;SDS011;36992;48.200;12.418;2023-03-16T02:49:11;4.57;;;1.80;;
50976;SDS011;36992;48.200;12.418;2023-03-16T02:51:42;2.03;;;0.93;;
50976;SDS011;36992;48.200;12.418;2023-03-16T02:54:09;2.05;;;0.80;;
50976;SDS011;36992;48.200;12.418;2023-03-16T02:56:36;2.38;;;1.08;;
50976;SDS011;36992;48.200;12.418;2023-03-16T02:59:03;4.95;;;1.23;;
50976;SDS011;36992;48.200;12.418;2023-03-16T03:01:29;2.65;;;1.15;;
50976;SDS011;36992;48.200;12.418;2023-03-16T03:03:58;1.55;;;0.75;;
50976;SDS011;36992;48.200;12.418;2023-03-16T03:06:26;2.33;;;0.90;;
50976;SDS011;36992;48.200;12.418;2023-03-16T03:08:53;2.85;;;1.23;;
50976;SDS011;36992;48.200;12.418;2023-03-16T03:11:19;10.55;;;2.53;;
50976;SDS011;36992;48.200;12.418;2023-03-16T03:13:46;2.50;;;1.23;;
50976;SDS011;36992;48.200;12.418;2023-03-16T03:16:13;3.38;;;1.27;;
50976;SDS011;36992;48.200;12.418;2023-03-16T03:18:39;2.17;;;0.90;;
50976;SDS011;36992;48.200;12.418;2023-03-16T03:21:06;2.25;;;1.05;;
50976;SDS011;36992;48.200;12.418;2023-03-16T03:23:34;3.25;;;1.13;;
50976;SDS011;36992;48.200;12.418;2023-03-16T03:26:00;6.55;;;2.60;;
50976;SDS011;36992;48.200;12.418;2023-03-16T03:28:28;3.38;;;1.63;;
50976;SDS011;36992;48.200;12.418;2023-03-16T03:30:55;5.13;;;1.90;;
50976;SDS011;36992;48.200;12.418;2023-03-16T03:33:22;3.67;;;1.48;;
50976;SDS011;36992;48.200;12.418;2023-03-16T03:35:52;5.07;;;1.83;;
50976;SDS011;36992;48.200;12.418;2023-03-16T03:38:19;3.80;;;1.60;;
50976;SDS011;36992;48.200;12.418;2023-03-16T03:40:48;3.20;;;1.52;;
50976;SDS011;36992;48.200;12.418;2023-03-16T03:43:15;4.97;;;1.83;;
50976;SDS011;36992;48.200;12.418;2023-03-16T03:45:42;3.75;;;1.90;;
50976;SDS011;36992;48.200;12.418;2023-03-16T03:48:08;2.72;;;1.40;;
50976;SDS011;36992;48.200;12.418;2023-03-16T03:50:35;2.22;;;1.27;;
50976;SDS011;36992;48.200;12.418;2023-03-16T03:53:02;2.83;;;1.40;;
50976;SDS011;36992;48.200;12.418;2023-03-16T03:55:29;3.70;;;2.03;;
50976;SDS011;36992;48.200;12.418;2023-03-16T03:57:56;2.42;;;1.05;;
50976;SDS011;36992;48.200;12.418;2023-03-16T04:00:23;2.75;;;1.08;;
50976;SDS011;36992;48.200;12.418;2023-03-16T04:02:50;3.22;;;1.45;;
50976;SDS011;36992;48.200;12.418;2023-03-16T04:05:16;3.70;;;1.33;;
50976;SDS011;36992;48.200;12.418;2023-03-16T04:07:43;4.10;;;1.10;;
50976;SDS011;36992;48.200;12.418;2023-03-16T04:10:09;5.97;;;0.95;;
50976;SDS011;36992;48.200;12.418;2023-03-16T04:12:36;2.78;;;1.33;;
50976;SDS011;36992;48.200;12.418;2023-03-16T04:15:04;2.72;;;1.23;;
50976;SDS011;36992;48.200;12.418;2023-03-16T04:17:31;2.85;;;1.10;;
50976;SDS011;36992;48.200;12.418;2023-03-16T04:19:58;2.75;;;1.20;;
50976;SDS011;36992;48.200;12.418;2023-03-16T04:22:26;2.30;;;1.13;;
50976;SDS011;36992;48.200;12.418;2023-03-16T04:24:54;4.88;;;1.45;;
50976;SDS011;36992;48.200;12.418;2023-03-16T04:27:20;4.88;;;1.20;;
50976;SDS011;36992;48.200;12.418;2023-03-16T04:29:47;3.55;;;1.15;;
50976;SDS011;36992;48.200;12.418;2023-03-16T04:32:15;2.58;;;1.30;;
50976;SDS011;36992;48.200;12.418;2023-03-16T04:34:41;2.78;;;1.02;;
50976;SDS011;36992;48.200;12.418;2023-03-16T04:37:08;2.85;;;1.05;;
50976;SDS011;36992;48.200;12.418;2023-03-16T04:39:34;3.03;;;1.17;;
50976;SDS011;36992;48.200;12.418;2023-03-16T04:42:01;2.15;;;0.93;;
50976;SDS011;36992;48.200;12.418;2023-03-16T04:44:28;2.92;;;1.08;;
50976;SDS011;36992;48.200;12.418;2023-03-16T04:46:54;2.85;;;1.38;;
50976;SDS011;36992;48.200;12.418;2023-03-16T04:49:22;1.98;;;0.82;;
50976;SDS011;36992;48.200;12.418;2023-03-16T04:51:48;1.88;;;0.90;;
50976;SDS011;36992;48.200;12.418;2023-03-16T04:54:15;1.90;;;0.80;;
50976;SDS011;36992;48.200;12.418;2023-03-16T04:56:41;2.60;;;1.13;;
50976;SDS011;36992;48.200;12.418;2023-03-16T04:59:08;2.95;;;1.05;;
50976;SDS011;36992;48.200;12.418;2023-03-16T05:01:34;2.03;;;0.93;;
50976;SDS011;36992;48.200;12.418;2023-03-16T05:04:02;2.03;;;1.00;;
50976;SDS011;36992;48.200;12.418;2023-03-16T05:06:30;2.30;;;1.08;;
50976;SDS011;36992;48.200;12.418;2023-03-16T05:08:57;2.15;;;1.00;;
50976;SDS011;36992;48.200;12.418;2023-03-16T05:11:24;2.00;;;0.80;;
50976;SDS011;36992;48.200;12.418;2023-03-16T05:13:51;2.63;;;0.98;;
50976;SDS011;36992;48.200;12.418;2023-03-16T05:16:17;2.10;;;0.88;;
50976;SDS011;36992;48.200;12.418;2023-03-16T05:18:44;1.67;;;0.80;;
50976;SDS011;36992;48.200;12.418;2023-03-16T05:21:10;2.50;;;1.15;;
50976;SDS011;36992;48.200;12.418;2023-03-16T05:23:38;1.98;;;0.80;;
50976;SDS011;36992;48.200;12.418;2023-03-16T05:26:05;2.10;;;0.80;;
50976;SDS011;36992;48.200;12.418;2023-03-16T05:28:32;1.83;;;0.90;;
50976;SDS011;36992;48.200;12.418;2023-03-16T05:30:58;2.53;;;1.08;;
50976;SDS011;36992;48.200;12.418;2023-03-16T05:33:27;2.45;;;0.90;;
50976;SDS011;36992;48.200;12.418;2023-03-16T05:35:54;1.90;;;0.77;;
50976;SDS011;36992;48.200;12.418;2023-03-16T05:38:22;2.13;;;1.00;;
50976;SDS011;36992;48.200;12.418;2023-03-16T05:40:50;2.45;;;1.00;;
50976;SDS011;36992;48.200;12.418;2023-03-16T05:43:17;1.67;;;0.70;;
50976;SDS011;36992;48.200;12.418;2023-03-16T05:45:43;2.00;;;0.90;;
50976;SDS011;36992;48.200;12.418;2023-03-16T05:48:10;3.25;;;1.38;;
50976;SDS011;36992;48.200;12.418;2023-03-16T05:50:36;2.00;;;0.90;;
50976;SDS011;36992;48.200;12.418;2023-03-16T05:53:03;2.17;;;1.10;;
50976;SDS011;36992;48.200;12.418;2023-03-16T05:55:29;1.98;;;0.95;;
50976;SDS011;36992;48.200;12.418;2023-03-16T05:57:57;2.03;;;0.98;;
50976;SDS011;36992;48.200;12.418;2023-03-16T06:00:24;1.98;;;0.90;;
50976;SDS011;36992;48.200;12.418;2023-03-16T06:02:51;3.25;;;1.45;;
50976;SDS011;36992;48.200;12.418;2023-03-16T06:05:19;3.38;;;1.48;;
50976;SDS011;36992;48.200;12.418;2023-03-16T06:07:48;3.15;;;1.75;;
50976;SDS011;36992;48.200;12.418;2023-03-16T06:10:15;2.92;;;1.33;;
50976;SDS011;36992;48.200;12.418;2023-03-16T06:12:42;2.38;;;1.10;;
50976;SDS011;36992;48.200;12.418;2023-03-16T06:15:10;2.42;;;1.10;;
50976;SDS011;36992;48.200;12.418;2023-03-16T06:17:37;2.08;;;0.85;;
50976;SDS011;36992;48.200;12.418;2023-03-16T06:20:06;3.15;;;1.42;;
50976;SDS011;36992;48.200;12.418;2023-03-16T06:22:37;3.60;;;1.77;;
50976;SDS011;36992;48.200;12.418;2023-03-16T06:25:04;5.68;;;2.30;;
50976;SDS011;36992;48.200;12.418;2023-03-16T06:27:32;5.15;;;2.20;;
50976;SDS011;36992;48.200;12.418;2023-03-16T06:29:58;4.90;;;2.40;;
50976;SDS011;36992;48.200;12.418;2023-03-16T06:32:26;6.97;;;2.85;;
50976;SDS011;36992;48.200;12.418;2023-03-16T06:34:53;4.80;;;2.45;;
50976;SDS011;36992;48.200;12.418;2023-03-16T06:37:19;5.85;;;2.38;;
50976;SDS011;36992;48.200;12.418;2023-03-16T06:39:46;4.65;;;2.40;;
50976;SDS011;36992;48.200;12.418;2023-03-16T06:42:13;7.95;;;3.67;;
50976;SDS011;36992;48.200;12.418;2023-03-16T06:44:39;5.85;;;3.10;;
50976;SDS011;36992;48.200;12.418;2023-03-16T06:47:06;7.80;;;3.13;;
50976;SDS011;36992;48.200;12.418;2023-03-16T06:49:35;10.55;;;4.60;;
50976;SDS011;36992;48.200;12.418;2023-03-16T06:52:02;6.82;;;3.00;;
50976;SDS011;36992;48.200;12.418;2023-03-16T06:54:28;8.57;;;3.53;;
50976;SDS011;36992;48.200;12.418;2023-03-16T06:56:56;6.45;;;2.95;;
50976;SDS011;36992;48.200;12.418;2023-03-16T06:59:23;8.52;;;3.33;;
50976;SDS011;36992;48.200;12.418;2023-03-16T07:01:49;10.88;;;4.30;;
50976;SDS011;36992;48.200;12.418;2023-03-16T07:04:15;7.95;;;3.38;;
50976;SDS011;36992;48.200;12.418;2023-03-16T07:06:43;5.88;;;3.50;;
50976;SDS011;36992;48.200;12.418;2023-03-16T07:09:10;8.38;;;4.35;;
50976;SDS011;36992;48.200;12.418;2023-03-16T07:11:36;8.65;;;4.35;;
50976;SDS011;36992;48.200;12.418;2023-03-16T07:14:03;6.95;;;3.15;;
50976;SDS011;36992;48.200;12.418;2023-03-16T07:16:29;9.23;;;3.90;;
50976;SDS011;36992;48.200;12.418;2023-03-16T07:18:56;7.50;;;3.92;;
50976;SDS011;36992;48.200;12.418;2023-03-16T07:21:23;8.55;;;3.53;;
50976;SDS011;36992;48.200;12.418;2023-03-16T07:23:51;8.82;;;4.00;;
50976;SDS011;36992;48.200;12.418;2023-03-16T07:26:19;7.18;;;3.42;;
50976;SDS011;36992;48.200;12.418;2023-03-16T07:28:47;9.45;;;4.50;;
50976;SDS011;36992;48.200;12.418;2023-03-16T07:31:13;8.70;;;3.88;;
50976;SDS011;36992;48.200;12.418;2023-03-16T07:33:39;7.63;;;3.50;;
50976;SDS011;36992;48.200;12.418;2023-03-16T07:36:06;10.32;;;5.15;;
50976;SDS011;36992;48.200;12.418;2023-03-16T07:38:34;11.45;;;5.28;;
50976;SDS011;36992;48.200;12.418;2023-03-16T07:41:02;7.93;;;3.28;;
50976;SDS011;36992;48.200;12.418;2023-03-16T07:43:28;8.88;;;4.88;;
50976;SDS011;36992;48.200;12.418;2023-03-16T07:45:55;10.75;;;4.97;;
50976;SDS011;36992;48.200;12.418;2023-03-16T07:48:21;9.60;;;4.75;;
50976;SDS011;36992;48.200;12.418;2023-03-16T07:50:48;8.27;;;3.67;;
50976;SDS011;36992;48.200;12.418;2023-03-16T07:53:15;9.80;;;4.78;;
50976;SDS011;36992;48.200;12.418;2023-03-16T07:55:42;10.02;;;4.72;;
50976;SDS011;36992;48.200;12.418;2023-03-16T07:58:10;10.15;;;4.88;;
50976;SDS011;36992;48.200;12.418;2023-03-16T08:00:37;7.88;;;4.13;;
50976;SDS011;36992;48.200;12.418;2023-03-16T08:03:04;9.63;;;4.45;;
50976;SDS011;36992;48.200;12.418;2023-03-16T08:05:31;8.75;;;4.22;;
50976;SDS011;36992;48.200;12.418;2023-03-16T08:07:58;10.40;;;4.38;;
50976;SDS011;36992;48.200;12.418;2023-03-16T08:10:25;10.90;;;5.72;;
50976;SDS011;36992;48.200;12.418;2023-03-16T08:12:52;9.77;;;5.15;;
50976;SDS011;36992;48.200;12.418;2023-03-16T08:15:20;9.32;;;5.32;;
50976;SDS011;36992;48.200;12.418;2023-03-16T08:17:46;7.28;;;4.07;;
50976;SDS011;36992;48.200;12.418;2023-03-16T08:20:13;6.25;;;3.13;;
50976;SDS011;36992;48.200;12.418;2023-03-16T08:22:40;6.70;;;3.80;;
50976;SDS011;36992;48.200;12.418;2023-03-16T08:25:10;7.13;;;3.58;;
50976;SDS011;36992;48.200;12.418;2023-03-16T08:27:37;7.90;;;4.25;;
50976;SDS011;36992;48.200;12.418;2023-03-16T08:30:04;7.80;;;3.70;;
50976;SDS011;36992;48.200;12.418;2023-03-16T08:32:33;7.47;;;4.65;;
50976;SDS011;36992;48.200;12.418;2023-03-16T08:34:59;5.80;;;3.72;;
50976;SDS011;36992;48.200;12.418;2023-03-16T08:37:27;8.38;;;4.32;;
50976;SDS011;36992;48.200;12.418;2023-03-16T08:39:53;8.65;;;3.92;;
50976;SDS011;36992;48.200;12.418;2023-03-16T08:42:20;8.85;;;4.72;;
50976;SDS011;36992;48.200;12.418;2023-03-16T08:44:47;8.38;;;4.47;;
50976;SDS011;36992;48.200;12.418;2023-03-16T08:47:14;9.52;;;4.78;;
50976;SDS011;36992;48.200;12.418;2023-03-16T08:49:43;10.50;;;5.80;;
50976;SDS011;36992;48.200;12.418;2023-03-16T08:52:09;7.55;;;4.50;;
50976;SDS011;36992;48.200;12.418;2023-03-16T08:54:37;8.85;;;4.45;;
50976;SDS011;36992;48.200;12.418;2023-03-16T08:57:03;7.15;;;4.75;;
50976;SDS011;36992;48.200;12.418;2023-03-16T08:59:30;10.05;;;6.30;;
50976;SDS011;36992;48.200;12.418;2023-03-16T09:01:56;9.48;;;5.50;;
50976;SDS011;36992;48.200;12.418;2023-03-16T09:04:24;6.57;;;4.18;;
50976;SDS011;36992;48.200;12.418;2023-03-16T09:06:53;7.13;;;3.58;;
50976;SDS011;36992;48.200;12.418;2023-03-16T09:09:20;6.80;;;4.00;;
50976;SDS011;36992;48.200;12.418;2023-03-16T09:11:46;8.63;;;4.80;;
50976;SDS011;36992;48.200;12.418;2023-03-16T09:14:13;6.47;;;4.05;;
50976;SDS011;36992;48.200;12.418;2023-03-16T09:16:40;6.88;;;3.50;;
50976;SDS011;36992;48.200;12.418;2023-03-16T09:19:08;10.23;;;3.92;;
50976;SDS011;36992;48.200;12.418;2023-03-16T09:21:35;7.40;;;3.92;;
50976;SDS011;36992;48.200;12.418;2023-03-16T09:24:03;8.68;;;4.60;;
50976;SDS011;36992;48.200;12.418;2023-03-16T09:26:31;7.13;;;4.57;;
50976;SDS011;36992;48.200;12.418;2023-03-16T09:28:59;8.73;;;5.65;;
50976;SDS011;36992;48.200;12.418;2023-03-16T09:31:26;8.07;;;5.03;;
50976;SDS011;36992;48.200;12.418;2023-03-16T09:33:52;8.48;;;3.47;;
50976;SDS011;36992;48.200;12.418;2023-03-16T09:36:19;10.68;;;6.05;;
50976;SDS011;36992;48.200;12.418;2023-03-16T09:38:45;8.32;;;5.22;;
50976;SDS011;36992;48.200;12.418;2023-03-16T09:41:21;9.02;;;5.28;;
50976;SDS011;36992;48.200;12.418;2023-03-16T09:43:59;10.73;;;6.80;;
50976;SDS011;36992;48.200;12.418;2023-03-16T09:46:35;10.40;;;5.18;;
50976;SDS011;36992;48.200;12.418;2023-03-16T09:49:05;6.40;;;4.55;;
50976;SDS011;36992;48.200;12.418;2023-03-16T09:51:35;7.63;;;4.15;;
50976;SDS011;36992;48.200;12.418;2023-03-16T09:54:09;6.63;;;3.83;;
50976;SDS011;36992;48.200;12.418;2023-03-16T09:56:44;10.13;;;5.82;;
50976;SDS011;36992;48.200;12.418;2023-03-16T09:59:14;7.57;;;4.40;;
50976;SDS011;36992;48.200;12.418;2023-03-16T10:01:45;7.30;;;5.03;;
50976;SDS011;36992;48.200;12.418;2023-03-16T10:04:26;6.68;;;4.43;;
50976;SDS011;36992;48.200;12.418;2023-03-16T10:07:08;8.63;;;4.93;;
50976;SDS011;36992;48.200;12.418;2023-03-16T10:09:46;7.53;;;4.07;;
50976;SDS011;36992;48.200;12.418;2023-03-16T10:12:21;6.82;;;4.28;;
50976;SDS011;36992;48.200;12.418;2023-03-16T10:14:53;6.40;;;4.25;;
50976;SDS011;36992;48.200;12.418;2023-03-16T10:17:25;7.63;;;4.07;;
50976;SDS011;36992;48.200;12.418;2023-03-16T10:19:56;6.82;;;4.28;;
50976;SDS011;36992;48.200;12.418;2023-03-16T10:22:28;8.50;;;5.60;;
50976;SDS011;36992;48.200;12.418;2023-03-16T10:25:00;8.75;;;5.25;;
50976;SDS011;36992;48.200;12.418;2023-03-16T10:27:34;7.25;;;4.38;;
50976;SDS011;36992;48.200;12.418;2023-03-16T10:30:03;6.38;;;3.28;;
50976;SDS011;36992;48.200;12.418;2023-03-16T10:32:42;5.90;;;3.30;;
50976;SDS011;36992;48.200;12.418;2023-03-16T10:35:10;3.95;;;2.15;;
50976;SDS011;36992;48.200;12.418;2023-03-16T10:37:47;5.00;;;2.03;;
50976;SDS011;36992;48.200;12.418;2023-03-16T10:40:14;4.47;;;2.58;;
50976;SDS011;36992;48.200;12.418;2023-03-16T10:42:45;3.55;;;1.88;;
50976;SDS011;36992;48.200;12.418;2023-03-16T10:45:18;2.88;;;1.52;;
50976;SDS011;36992;48.200;12.418;2023-03-16T10:47:49;4.07;;;1.90;;
50976;SDS011;36992;48.200;12.418;2023-03-16T10:50:21;4.30;;;2.30;;
50976;SDS011;36992;48.200;12.418;2023-03-16T10:52:49;3.80;;;1.77;;
50976;SDS011;36992;48.200;12.418;2023-03-16T10:55:18;3.10;;;1.63;;
50976;SDS011;36992;48.200;12.418;2023-03-16T10:57:49;2.72;;;1.63;;
50976;SDS011;36992;48.200;12.418;2023-03-16T11:00:19;3.80;;;2.50;;
50976;SDS011;36992;48.200;12.418;2023-03-16T11:02:47;3.78;;;2.13;;
50976;SDS011;36992;48.200;12.418;2023-03-16T11:05:24;2.83;;;1.50;;
50976;SDS011;36992;48.200;12.418;2023-03-16T11:07:54;2.65;;;1.25;;
50976;SDS011;36992;48.200;12.418;2023-03-16T11:10:26;3.97;;;2.45;;
50976;SDS011;36992;48.200;12.418;2023-03-16T11:13:01;4.28;;;2.05;;
50976;SDS011;36992;48.200;12.418;2023-03-16T11:15:32;2.67;;;1.70;;
50976;SDS011;36992;48.200;12.418;2023-03-16T11:18:02;4.18;;;2.10;;
50976;SDS011;36992;48.200;12.418;2023-03-16T11:20:29;4.45;;;2.00;;
50976;SDS011;36992;48.200;12.418;2023-03-16T11:22:58;4.10;;;2.28;;
50976;SDS011;36992;48.200;12.418;2023-03-16T11:25:27;3.40;;;1.92;;
50976;SDS011;36992;48.200;12.418;2023-03-16T11:27:59;3.15;;;1.52;;
50976;SDS011;36992;48.200;12.418;2023-03-16T11:30:37;3.88;;;1.85;;
50976;SDS011;36992;48.200;12.418;2023-03-16T11:33:07;3.70;;;1.60;;
50976;SDS011;36992;48.200;12.418;2023-03-16T11:35:37;3.55;;;1.77;;
50976;SDS011;36992;48.200;12.418;2023-03-16T11:38:12;2.53;;;1.55;;
50976;SDS011;36992;48.200;12.418;2023-03-16T11:40:48;3.20;;;1.30;;
50976;SDS011;36992;48.200;12.418;2023-03-16T11:46:19;4.03;;;1.58;;
50976;SDS011;36992;48.200;12.418;2023-03-16T11:48:51;2.35;;;1.30;;
50976;SDS011;36992;48.200;12.418;2023-03-16T11:51:28;3.63;;;1.70;;
50976;SDS011;36992;48.200;12.418;2023-03-16T11:54:03;2.55;;;1.50;;
50976;SDS011;36992;48.200;12.418;2023-03-16T11:56:43;3.55;;;1.20;;
50976;SDS011;36992;48.200;12.418;2023-03-16T11:59:23;2.78;;;1.65;;
50976;SDS011;36992;48.200;12.418;2023-03-16T12:02:15;2.53;;;1.40;;
50976;SDS011;36992;48.200;12.418;2023-03-16T12:04:55;3.22;;;1.58;;
50976;SDS011;36992;48.200;12.418;2023-03-16T12:07:38;3.67;;;1.60;;
50976;SDS011;36992;48.200;12.418;2023-03-16T12:10:21;3.05;;;1.80;;
50976;SDS011;36992;48.200;12.418;2023-03-16T12:12:52;2.60;;;1.27;;
50976;SDS011;36992;48.200;12.418;2023-03-16T12:15:31;3.42;;;1.42;;
50976;SDS011;36992;48.200;12.418;2023-03-16T12:18:03;3.00;;;1.77;;
50976;SDS011;36992;48.200;12.418;2023-03-16T12:20:39;3.42;;;1.83;;
50976;SDS011;36992;48.200;12.418;2023-03-16T12:23:09;3.03;;;1.40;;
50976;SDS011;36992;48.200;12.418;2023-03-16T12:25:39;3.30;;;1.63;;
50976;SDS011;36992;48.200;12.418;2023-03-16T12:28:12;2.80;;;1.60;;
50976;SDS011;36992;48.200;12.418;2023-03-16T12:30:46;3.03;;;1.25;;
50976;SDS011;36992;48.200;12.418;2023-03-16T12:33:18;3.90;;;1.30;;
50976;SDS011;36992;48.200;12.418;2023-03-16T12:35:54;2.88;;;1.60;;
50976;SDS011;36992;48.200;12.418;2023-03-16T12:38:29;3.47;;;1.17;;
50976;SDS011;36992;48.200;12.418;2023-03-16T12:41:06;3.45;;;1.00;;
50976;SDS011;36992;48.200;12.418;2023-03-16T12:43:44;2.33;;;1.23;;
50976;SDS011;36992;48.200;12.418;2023-03-16T12:46:21;2.20;;;1.23;;
50976;SDS011;36992;48.200;12.418;2023-03-16T12:48:52;1.90;;;0.93;;
50976;SDS011;36992;48.200;12.418;2023-03-16T12:51:31;2.63;;;1.10;;
50976;SDS011;36992;48.200;12.418;2023-03-16T12:53:58;2.20;;;1.17;;
50976;SDS011;36992;48.200;12.418;2023-03-16T12:56:26;2.08;;;1.25;;
50976;SDS011;36992;48.200;12.418;2023-03-16T12:58:55;2.78;;;1.15;;
50976;SDS011;36992;48.200;12.418;2023-03-16T13:01:26;1.45;;;0.63;;
50976;SDS011;36992;48.200;12.418;2023-03-16T13:03:58;2.63;;;1.08;;
50976;SDS011;36992;48.200;12.418;2023-03-16T13:06:30;2.88;;;1.10;;
50976;SDS011;36992;48.200;12.418;2023-03-16T13:08:59;2.90;;;1.13;;
50976;SDS011;36992;48.200;12.418;2023-03-16T13:11:27;1.73;;;0.90;;
50976;SDS011;36992;48.200;12.418;2023-03-16T13:14:05;1.67;;;0.70;;
50976;SDS011;36992;48.200;12.418;2023-03-16T13:16:36;1.80;;;0.82;;
50976;SDS011;36992;48.200;12.418;2023-03-16T13:19:16;2.10;;;0.80;;
50976;SDS011;36992;48.200;12.418;2023-03-16T13:22:02;2.33;;;1.08;;
50976;SDS011;36992;48.200;12.418;2023-03-16T13:24:43;2.42;;;0.90;;
50976;SDS011;36992;48.200;12.418;2023-03-16T13:27:19;1.98;;;0.68;;
50976;SDS011;36992;48.200;12.418;2023-03-16T13:29:54;1.63;;;0.63;;
50976;SDS011;36992;48.200;12.418;2023-03-16T13:32:24;2.13;;;0.70;;
50976;SDS011;36992;48.200;12.418;2023-03-16T13:34:56;1.60;;;0.70;;
50976;SDS011;36992;48.200;12.418;2023-03-16T13:37:23;1.48;;;0.80;;
50976;SDS011;36992;48.200;12.418;2023-03-16T13:39:53;2.63;;;1.30;;
50976;SDS011;36992;48.200;12.418;2023-03-16T13:42:21;2.47;;;0.93;;
50976;SDS011;36992;48.200;12.418;2023-03-16T13:44:51;3.83;;;0.82;;
50976;SDS011;36992;48.200;12.418;2023-03-16T13:47:19;2.13;;;0.90;;
50976;SDS011;36992;48.200;12.418;2023-03-16T13:49:47;1.60;;;0.85;;
50976;SDS011;36992;48.200;12.418;2023-03-16T13:52:19;1.52;;;0.60;;
50976;SDS011;36992;48.200;12.418;2023-03-16T13:54:49;2.80;;;0.50;;
50976;SDS011;36992;48.200;12.418;2023-03-16T13:57:16;2.35;;;0.90;;
50976;SDS011;36992;48.200;12.418;2023-03-16T13:59:45;1.42;;;0.50;;
50976;SDS011;36992;48.200;12.418;2023-03-16T14:02:15;2.42;;;0.50;;
50976;SDS011;36992;48.200;12.418;2023-03-16T14:04:43;1.60;;;0.77;;
50976;SDS011;36992;48.200;12.418;2023-03-16T14:07:14;4.07;;;0.80;;
50976;SDS011;36992;48.200;12.418;2023-03-16T14:09:42;1.85;;;0.77;;
50976;SDS011;36992;48.200;12.418;2023-03-16T14:12:12;1.85;;;0.50;;
50976;SDS011;36992;48.200;12.418;2023-03-16T14:14:39;1.35;;;0.50;;
50976;SDS011;36992;48.200;12.418;2023-03-16T14:17:08;2.33;;;0.70;;
50976;SDS011;36992;48.200;12.418;2023-03-16T14:19:39;1.40;;;0.40;;
50976;SDS011;36992;48.200;12.418;2023-03-16T14:22:16;1.05;;;0.35;;
50976;SDS011;36992;48.200;12.418;2023-03-16T14:24:45;1.67;;;0.50;;
50976;SDS011;36992;48.200;12.418;2023-03-16T14:27:18;2.78;;;0.50;;
50976;SDS011;36992;48.200;12.418;2023-03-16T14:29:50;3.10;;;1.13;;
50976;SDS011;36992;48.200;12.418;2023-03-16T14:32:21;1.83;;;0.95;;
50976;SDS011;36992;48.200;12.418;2023-03-16T14:34:52;1.30;;;0.50;;
50976;SDS011;36992;48.200;12.418;2023-03-16T14:37:20;1.30;;;0.60;;
50976;SDS011;36992;48.200;12.418;2023-03-16T14:39:56;3.85;;;0.95;;
50976;SDS011;36992;48.200;12.418;2023-03-16T14:44:52;0.98;;;0.43;;
50976;SDS011;36992;48.200;12.418;2023-03-16T14:47:20;5.10;;;1.40;;
50976;SDS011;36992;48.200;12.418;2023-03-16T14:49:49;2.10;;;0.70;;
50976;SDS011;36992;48.200;12.418;2023-03-16T14:52:17;3.30;;;0.75;;